首页
METAR-TAF:

METAR-TAF

机场 :

索尔诺克, 匈牙利

纬度: 47-07N, 经度: 020-14E, 海拔: 89米

当前天气观测

该预报发布于42分钟前的10:45 UTC
风速6节,风向东北
温度 0°C
湿度 100%
气压 1023 hPa
能見度: 3000
阴天层高于600英尺
轻雾

METAR: LHSN 261045Z 04006KT 3000 BR OVC006 M00/M00 Q1023 NOSIG RMK YLO

时间: 12:27 (11:27 UTC)

预报

该预报发布于3小时和12分钟前的08:15 UTC
预报有效从26日的 09点(UTC)到 26日的 18点(UTC)
风速5节,风向东转东北
能見度: 2000
阴天层高于500英尺
轻雾
成为
从 26日的 09点(UTC)到 26日的 12点(UTC)
能見度: 4000
轻雾
短暂存在
从 26日的 12点(UTC)到 26日的 15点(UTC)
能見度: 5000
多云层高于500英尺
多云层高于2500英尺
轻雾
成为
从 26日的 15点(UTC)到 26日的 18点(UTC)
能見度: 1500
散云层高于1000英尺
多云层高于2400英尺
轻雾

TAF: LHSN 260815Z 2609/2618 06005KT 2000 BR OVC005 BECMG 2609/2612 4000 BR TEMPO 2612/2615 5000 BR BKN005 BKN025 BECMG 2615/2618 1500 BR SCT010 BKN024

超过4000个机场的气象观测和天气预报(METAR&TAF报告)。

可查询的气象台以黄色和红色小点在地图上表示。

将鼠标移到小点上方,可查看气象台名称。

然后点击查看天气观测和预报。

如需切换地图:点击带黑十字的绿色按钮放大地图;点击带横线的绿色按钮缩小地图;或者点击绿色箭头查看邻近地区的地图。


METAR-TAF: